This is the latest recevied weather packets stored in our database for station/object N6RDS-8. If no packets are shown the sender has not sent any weather packets the latest 10 day(s).
| Time | Temp. | Humidity | Pressure | Rain* | Wind** | Luminosity | Snow |
|---|---|---|---|---|---|---|---|
| 1778031384 | 20° C | 33% | 1014.5 hPa | 0 mm | - | 19 W/m² | - |
| 1778031080 | 20.56° C | 34% | 1014.6 hPa | 0 mm | - | 23 W/m² | - |
| 1778030776 | 20.56° C | 33% | 1014.6 hPa | 0 mm | - | 26 W/m² | - |
| 1778030472 | 20.56° C | 33% | 1014.5 hPa | 0 mm | - | 30 W/m² | - |
| 1778030170 | 21.11° C | 32% | 1014.5 hPa | 0 mm | - | 36 W/m² | - |
| 1778029866 | 21.11° C | 32% | 1014.3 hPa | 0 mm | - | 37 W/m² | - |
| 1778029560 | 21.11° C | 32% | 1014.3 hPa | 0 mm | - | 47 W/m² | - |
| 1778029256 | 21.11° C | 31% | 1014.2 hPa | 0 mm | - | 59 W/m² | - |
| 1778028954 | 21.67° C | 31% | 1014.2 hPa | 0 mm | - | 55 W/m² | - |
| 1778028650 | 21.11° C | 32% | 1014.2 hPa | 0 mm | - | 109 W/m² | - |
| 1778028347 | 21.67° C | 31% | 1013.9 hPa | 0 mm | - | 45 W/m² | - |
| 1778028043 | 22.22° C | 31% | 1014.1 hPa | 0 mm | - | 153 W/m² | - |
| 1778027740 | 22.22° C | 31% | 1014 hPa | 0 mm | - | 170 W/m² | - |
| 1778027436 | 22.22° C | 30% | 1014.2 hPa | 0 mm | - | 173 W/m² | - |
| 1778027132 | 22.22° C | 30% | 1014.1 hPa | 0 mm | - | 188 W/m² | - |
| 1778026828 | 22.22° C | 29% | 1013.8 hPa | 0 mm | - | 88 W/m² | - |
| 1778026525 | 22.78° C | 29% | 1014 hPa | 0 mm | - | 216 W/m² | - |
| 1778026221 | 22.78° C | 26% | 1013.8 hPa | 0 mm | - | 232 W/m² | - |
| 1778025919 | 22.78° C | 30% | 1014 hPa | 0 mm | - | 248 W/m² | - |
| 1778025616 | 22.78° C | 30% | 1014 hPa | 0 mm | - | 262 W/m² | - |
| 1778025314 | 23.33° C | 29% | 1013.9 hPa | 0 mm | - | 280 W/m² | - |
| 1778025010 | 23.33° C | 30% | 1013.8 hPa | 0 mm | - | 296 W/m² | - |
| 1778024708 | 23.89° C | 29% | 1013.7 hPa | 0 mm | - | 313 W/m² | - |
| 1778024404 | 23.89° C | 29% | 1013.7 hPa | 0 mm | - | 336 W/m² | - |
| 1778024102 | 23.89° C | 30% | 1013.8 hPa | 0 mm | - | 363 W/m² | - |
* Rain latest hour (hover to see other rain measurements)
** Current wind speed in m/s (hover to see current wind gust speed)